sensor_id;sensor_type;location;lat;lon;timestamp;P1;durP1;ratioP1;P2;durP2;ratioP2
70467;SDS011;57934;51.532;7.684;2024-02-15T00:00:15;23.45;;;15.38;;
70467;SDS011;57934;51.532;7.684;2024-02-15T00:02:42;26.10;;;14.90;;
70467;SDS011;57934;51.532;7.684;2024-02-15T00:05:12;24.92;;;15.13;;
70467;SDS011;57934;51.532;7.684;2024-02-15T00:07:40;25.77;;;15.13;;
70467;SDS011;57934;51.532;7.684;2024-02-15T00:10:06;22.73;;;14.40;;
70467;SDS011;57934;51.532;7.684;2024-02-15T00:12:34;26.70;;;15.00;;
70467;SDS011;57934;51.532;7.684;2024-02-15T00:15:01;25.75;;;14.90;;
70467;SDS011;57934;51.532;7.684;2024-02-15T00:17:27;21.63;;;14.10;;
70467;SDS011;57934;51.532;7.684;2024-02-15T00:19:55;24.35;;;13.93;;
70467;SDS011;57934;51.532;7.684;2024-02-15T00:22:21;27.02;;;13.77;;
70467;SDS011;57934;51.532;7.684;2024-02-15T00:24:47;21.20;;;13.70;;
70467;SDS011;57934;51.532;7.684;2024-02-15T00:27:14;21.88;;;13.73;;
70467;SDS011;57934;51.532;7.684;2024-02-15T00:29:42;24.75;;;14.00;;
70467;SDS011;57934;51.532;7.684;2024-02-15T00:32:11;23.50;;;14.23;;
70467;SDS011;57934;51.532;7.684;2024-02-15T00:34:37;21.80;;;13.13;;
70467;SDS011;57934;51.532;7.684;2024-02-15T00:37:04;22.42;;;13.57;;
70467;SDS011;57934;51.532;7.684;2024-02-15T00:39:31;21.85;;;14.07;;
70467;SDS011;57934;51.532;7.684;2024-02-15T00:41:57;24.13;;;13.25;;
70467;SDS011;57934;51.532;7.684;2024-02-15T00:44:26;19.45;;;12.85;;
70467;SDS011;57934;51.532;7.684;2024-02-15T00:46:52;18.60;;;13.63;;
70467;SDS011;57934;51.532;7.684;2024-02-15T00:49:18;26.33;;;13.82;;
70467;SDS011;57934;51.532;7.684;2024-02-15T00:51:47;21.70;;;13.20;;
70467;SDS011;57934;51.532;7.684;2024-02-15T00:54:14;19.38;;;14.02;;
70467;SDS011;57934;51.532;7.684;2024-02-15T00:56:41;21.20;;;13.50;;
70467;SDS011;57934;51.532;7.684;2024-02-15T00:59:07;23.90;;;14.07;;
70467;SDS011;57934;51.532;7.684;2024-02-15T01:01:33;24.13;;;14.18;;
70467;SDS011;57934;51.532;7.684;2024-02-15T01:03:59;23.60;;;13.95;;
70467;SDS011;57934;51.532;7.684;2024-02-15T01:06:25;29.42;;;15.25;;
70467;SDS011;57934;51.532;7.684;2024-02-15T01:08:51;26.77;;;15.65;;
70467;SDS011;57934;51.532;7.684;2024-02-15T01:11:17;26.55;;;14.18;;
70467;SDS011;57934;51.532;7.684;2024-02-15T01:13:43;26.83;;;15.52;;
70467;SDS011;57934;51.532;7.684;2024-02-15T01:16:09;22.73;;;14.00;;
70467;SDS011;57934;51.532;7.684;2024-02-15T01:18:35;24.73;;;13.75;;
70467;SDS011;57934;51.532;7.684;2024-02-15T01:21:01;28.42;;;15.02;;
70467;SDS011;57934;51.532;7.684;2024-02-15T01:23:27;23.98;;;14.27;;
70467;SDS011;57934;51.532;7.684;2024-02-15T01:25:53;27.73;;;14.45;;
70467;SDS011;57934;51.532;7.684;2024-02-15T01:28:19;21.33;;;13.57;;
70467;SDS011;57934;51.532;7.684;2024-02-15T01:30:45;25.40;;;13.55;;
70467;SDS011;57934;51.532;7.684;2024-02-15T01:33:12;24.15;;;13.18;;
70467;SDS011;57934;51.532;7.684;2024-02-15T01:35:38;22.65;;;13.93;;
70467;SDS011;57934;51.532;7.684;2024-02-15T01:38:07;25.75;;;13.38;;
70467;SDS011;57934;51.532;7.684;2024-02-15T01:40:33;26.00;;;13.23;;
70467;SDS011;57934;51.532;7.684;2024-02-15T01:43:00;24.58;;;13.30;;
70467;SDS011;57934;51.532;7.684;2024-02-15T01:45:26;23.55;;;13.80;;
70467;SDS011;57934;51.532;7.684;2024-02-15T01:47:53;30.33;;;15.10;;
70467;SDS011;57934;51.532;7.684;2024-02-15T01:50:19;23.45;;;13.85;;
70467;SDS011;57934;51.532;7.684;2024-02-15T01:52:47;28.45;;;14.20;;
70467;SDS011;57934;51.532;7.684;2024-02-15T01:55:15;27.90;;;14.57;;
70467;SDS011;57934;51.532;7.684;2024-02-15T01:57:44;29.85;;;14.32;;
70467;SDS011;57934;51.532;7.684;2024-02-15T02:00:11;26.95;;;13.80;;
70467;SDS011;57934;51.532;7.684;2024-02-15T02:02:39;25.85;;;15.05;;
70467;SDS011;57934;51.532;7.684;2024-02-15T02:05:07;30.13;;;15.98;;
70467;SDS011;57934;51.532;7.684;2024-02-15T02:07:34;34.72;;;16.88;;
70467;SDS011;57934;51.532;7.684;2024-02-15T02:10:00;33.13;;;17.13;;
70467;SDS011;57934;51.532;7.684;2024-02-15T02:12:26;33.03;;;17.70;;
70467;SDS011;57934;51.532;7.684;2024-02-15T02:14:55;37.17;;;18.60;;
70467;SDS011;57934;51.532;7.684;2024-02-15T02:17:21;31.45;;;18.42;;
70467;SDS011;57934;51.532;7.684;2024-02-15T02:19:47;31.15;;;17.30;;
70467;SDS011;57934;51.532;7.684;2024-02-15T02:22:15;35.97;;;16.55;;
70467;SDS011;57934;51.532;7.684;2024-02-15T02:27:29;35.45;;;16.95;;
70467;SDS011;57934;51.532;7.684;2024-02-15T02:29:56;30.75;;;17.30;;
70467;SDS011;57934;51.532;7.684;2024-02-15T02:32:25;33.15;;;17.23;;
70467;SDS011;57934;51.532;7.684;2024-02-15T02:34:52;26.83;;;16.42;;
70467;SDS011;57934;51.532;7.684;2024-02-15T02:37:23;34.03;;;17.27;;
70467;SDS011;57934;51.532;7.684;2024-02-15T02:39:50;30.95;;;16.90;;
70467;SDS011;57934;51.532;7.684;2024-02-15T02:42:16;31.60;;;17.10;;
70467;SDS011;57934;51.532;7.684;2024-02-15T02:44:42;37.30;;;17.48;;
70467;SDS011;57934;51.532;7.684;2024-02-15T02:47:08;27.75;;;15.73;;
70467;SDS011;57934;51.532;7.684;2024-02-15T02:49:37;34.60;;;16.25;;
70467;SDS011;57934;51.532;7.684;2024-02-15T02:52:03;29.27;;;16.65;;
70467;SDS011;57934;51.532;7.684;2024-02-15T02:54:30;31.88;;;15.75;;
70467;SDS011;57934;51.532;7.684;2024-02-15T02:56:56;27.27;;;15.68;;
70467;SDS011;57934;51.532;7.684;2024-02-15T02:59:22;34.10;;;16.02;;
70467;SDS011;57934;51.532;7.684;2024-02-15T03:01:48;33.63;;;16.55;;
70467;SDS011;57934;51.532;7.684;2024-02-15T03:04:15;28.75;;;16.00;;
70467;SDS011;57934;51.532;7.684;2024-02-15T03:06:45;43.33;;;15.75;;
70467;SDS011;57934;51.532;7.684;2024-02-15T03:09:11;32.85;;;16.25;;
70467;SDS011;57934;51.532;7.684;2024-02-15T03:11:40;41.83;;;16.38;;
70467;SDS011;57934;51.532;7.684;2024-02-15T03:14:06;33.70;;;16.23;;
70467;SDS011;57934;51.532;7.684;2024-02-15T03:16:32;29.85;;;14.88;;
70467;SDS011;57934;51.532;7.684;2024-02-15T03:18:59;31.00;;;15.20;;
70467;SDS011;57934;51.532;7.684;2024-02-15T03:21:28;33.88;;;16.02;;
70467;SDS011;57934;51.532;7.684;2024-02-15T03:23:54;30.92;;;15.95;;
70467;SDS011;57934;51.532;7.684;2024-02-15T03:26:30;34.05;;;16.08;;
70467;SDS011;57934;51.532;7.684;2024-02-15T03:29:02;32.92;;;16.63;;
70467;SDS011;57934;51.532;7.684;2024-02-15T03:31:29;38.38;;;17.27;;
70467;SDS011;57934;51.532;7.684;2024-02-15T03:33:57;37.65;;;17.88;;
70467;SDS011;57934;51.532;7.684;2024-02-15T03:36:24;33.90;;;16.77;;
70467;SDS011;57934;51.532;7.684;2024-02-15T03:38:50;40.42;;;17.63;;
70467;SDS011;57934;51.532;7.684;2024-02-15T03:41:19;32.38;;;16.42;;
70467;SDS011;57934;51.532;7.684;2024-02-15T03:43:45;41.63;;;16.75;;
70467;SDS011;57934;51.532;7.684;2024-02-15T03:46:13;36.85;;;17.90;;
70467;SDS011;57934;51.532;7.684;2024-02-15T03:48:43;35.00;;;16.63;;
70467;SDS011;57934;51.532;7.684;2024-02-15T03:51:09;45.95;;;19.45;;
70467;SDS011;57934;51.532;7.684;2024-02-15T03:53:35;39.92;;;18.90;;
70467;SDS011;57934;51.532;7.684;2024-02-15T03:56:05;42.15;;;19.23;;
70467;SDS011;57934;51.532;7.684;2024-02-15T03:58:32;40.42;;;18.00;;
70467;SDS011;57934;51.532;7.684;2024-02-15T04:00:58;46.30;;;19.95;;
70467;SDS011;57934;51.532;7.684;2024-02-15T04:03:25;40.80;;;19.50;;
70467;SDS011;57934;51.532;7.684;2024-02-15T04:05:51;45.17;;;19.50;;
70467;SDS011;57934;51.532;7.684;2024-02-15T04:08:18;48.78;;;20.05;;
70467;SDS011;57934;51.532;7.684;2024-02-15T04:10:44;41.88;;;20.45;;
70467;SDS011;57934;51.532;7.684;2024-02-15T04:13:11;51.88;;;21.08;;
70467;SDS011;57934;51.532;7.684;2024-02-15T04:15:37;55.78;;;21.40;;
70467;SDS011;57934;51.532;7.684;2024-02-15T04:18:04;46.55;;;21.65;;
70467;SDS011;57934;51.532;7.684;2024-02-15T04:20:30;45.75;;;20.63;;
70467;SDS011;57934;51.532;7.684;2024-02-15T04:22:56;51.20;;;21.95;;
70467;SDS011;57934;51.532;7.684;2024-02-15T04:25:23;48.22;;;21.35;;
70467;SDS011;57934;51.532;7.684;2024-02-15T04:27:53;37.08;;;19.92;;
70467;SDS011;57934;51.532;7.684;2024-02-15T04:30:20;42.95;;;21.83;;
70467;SDS011;57934;51.532;7.684;2024-02-15T04:32:46;37.72;;;19.60;;
70467;SDS011;57934;51.532;7.684;2024-02-15T04:35:12;37.20;;;19.23;;
70467;SDS011;57934;51.532;7.684;2024-02-15T04:37:39;33.35;;;18.67;;
70467;SDS011;57934;51.532;7.684;2024-02-15T04:40:06;30.65;;;17.73;;
70467;SDS011;57934;51.532;7.684;2024-02-15T04:42:36;31.65;;;17.35;;
70467;SDS011;57934;51.532;7.684;2024-02-15T04:45:06;33.88;;;17.70;;
70467;SDS011;57934;51.532;7.684;2024-02-15T04:47:34;26.88;;;16.17;;
70467;SDS011;57934;51.532;7.684;2024-02-15T04:50:00;27.40;;;15.35;;
70467;SDS011;57934;51.532;7.684;2024-02-15T04:52:26;25.48;;;15.55;;
70467;SDS011;57934;51.532;7.684;2024-02-15T04:54:52;24.75;;;14.05;;
70467;SDS011;57934;51.532;7.684;2024-02-15T04:57:26;22.85;;;13.50;;
70467;SDS011;57934;51.532;7.684;2024-02-15T04:59:54;21.80;;;12.45;;
70467;SDS011;57934;51.532;7.684;2024-02-15T05:02:20;19.20;;;12.98;;
70467;SDS011;57934;51.532;7.684;2024-02-15T05:04:47;18.20;;;11.60;;
70467;SDS011;57934;51.532;7.684;2024-02-15T05:07:13;15.45;;;11.50;;
70467;SDS011;57934;51.532;7.684;2024-02-15T05:09:42;22.08;;;10.30;;
70467;SDS011;57934;51.532;7.684;2024-02-15T05:12:08;15.68;;;10.05;;
70467;SDS011;57934;51.532;7.684;2024-02-15T05:14:34;21.20;;;9.52;;
70467;SDS011;57934;51.532;7.684;2024-02-15T05:17:02;18.20;;;9.98;;
70467;SDS011;57934;51.532;7.684;2024-02-15T05:19:28;18.42;;;10.20;;
70467;SDS011;57934;51.532;7.684;2024-02-15T05:21:56;14.20;;;10.02;;
70467;SDS011;57934;51.532;7.684;2024-02-15T05:24:21;13.30;;;8.15;;
70467;SDS011;57934;51.532;7.684;2024-02-15T05:26:47;14.43;;;8.05;;
70467;SDS011;57934;51.532;7.684;2024-02-15T05:29:14;12.57;;;7.97;;
70467;SDS011;57934;51.532;7.684;2024-02-15T05:31:40;14.85;;;7.38;;
70467;SDS011;57934;51.532;7.684;2024-02-15T05:34:07;10.77;;;7.97;;
70467;SDS011;57934;51.532;7.684;2024-02-15T05:36:34;9.95;;;6.45;;
70467;SDS011;57934;51.532;7.684;2024-02-15T05:39:00;11.02;;;5.80;;
70467;SDS011;57934;51.532;7.684;2024-02-15T05:41:28;12.50;;;6.30;;
70467;SDS011;57934;51.532;7.684;2024-02-15T05:43:55;11.35;;;5.88;;
70467;SDS011;57934;51.532;7.684;2024-02-15T05:46:23;13.05;;;6.70;;
70467;SDS011;57934;51.532;7.684;2024-02-15T05:48:49;11.73;;;6.05;;
70467;SDS011;57934;51.532;7.684;2024-02-15T05:51:17;8.93;;;6.07;;
70467;SDS011;57934;51.532;7.684;2024-02-15T05:53:43;12.13;;;5.20;;
70467;SDS011;57934;51.532;7.684;2024-02-15T05:56:09;6.70;;;5.40;;
70467;SDS011;57934;51.532;7.684;2024-02-15T05:58:39;5.28;;;4.40;;
70467;SDS011;57934;51.532;7.684;2024-02-15T06:01:06;7.30;;;4.88;;
70467;SDS011;57934;51.532;7.684;2024-02-15T06:03:37;14.85;;;5.47;;
70467;SDS011;57934;51.532;7.684;2024-02-15T06:06:04;5.55;;;4.00;;
70467;SDS011;57934;51.532;7.684;2024-02-15T06:08:33;7.97;;;3.95;;
70467;SDS011;57934;51.532;7.684;2024-02-15T06:11:00;9.45;;;4.40;;
70467;SDS011;57934;51.532;7.684;2024-02-15T06:13:29;8.00;;;3.80;;
70467;SDS011;57934;51.532;7.684;2024-02-15T06:15:56;4.78;;;3.33;;
70467;SDS011;57934;51.532;7.684;2024-02-15T06:18:24;6.90;;;3.50;;
70467;SDS011;57934;51.532;7.684;2024-02-15T06:20:53;6.00;;;3.72;;
70467;SDS011;57934;51.532;7.684;2024-02-15T06:23:20;11.35;;;4.40;;
70467;SDS011;57934;51.532;7.684;2024-02-15T06:25:46;8.70;;;3.72;;
70467;SDS011;57934;51.532;7.684;2024-02-15T06:28:15;8.50;;;3.47;;
70467;SDS011;57934;51.532;7.684;2024-02-15T06:30:59;5.60;;;3.33;;
70467;SDS011;57934;51.532;7.684;2024-02-15T06:33:44;7.03;;;3.25;;
70467;SDS011;57934;51.532;7.684;2024-02-15T06:39:13;4.18;;;2.67;;
70467;SDS011;57934;51.532;7.684;2024-02-15T06:41:57;4.78;;;3.03;;
70467;SDS011;57934;51.532;7.684;2024-02-15T06:44:23;6.85;;;2.90;;
70467;SDS011;57934;51.532;7.684;2024-02-15T06:46:50;5.90;;;3.05;;
70467;SDS011;57934;51.532;7.684;2024-02-15T06:49:16;7.65;;;3.10;;
70467;SDS011;57934;51.532;7.684;2024-02-15T06:51:42;8.43;;;3.13;;
70467;SDS011;57934;51.532;7.684;2024-02-15T06:54:09;5.00;;;3.38;;
70467;SDS011;57934;51.532;7.684;2024-02-15T06:56:36;8.80;;;2.95;;
70467;SDS011;57934;51.532;7.684;2024-02-15T06:59:03;10.32;;;4.07;;
70467;SDS011;57934;51.532;7.684;2024-02-15T07:01:29;6.75;;;3.70;;
70467;SDS011;57934;51.532;7.684;2024-02-15T07:03:56;7.88;;;3.63;;
70467;SDS011;57934;51.532;7.684;2024-02-15T07:06:22;5.30;;;3.50;;
70467;SDS011;57934;51.532;7.684;2024-02-15T07:08:48;5.88;;;3.50;;
70467;SDS011;57934;51.532;7.684;2024-02-15T07:11:16;11.68;;;3.65;;
70467;SDS011;57934;51.532;7.684;2024-02-15T07:13:42;9.52;;;3.20;;
70467;SDS011;57934;51.532;7.684;2024-02-15T07:16:08;11.00;;;3.72;;
70467;SDS011;57934;51.532;7.684;2024-02-15T07:18:34;6.75;;;3.88;;
70467;SDS011;57934;51.532;7.684;2024-02-15T07:21:00;10.93;;;3.70;;
70467;SDS011;57934;51.532;7.684;2024-02-15T07:23:27;14.73;;;4.97;;
70467;SDS011;57934;51.532;7.684;2024-02-15T07:25:53;11.32;;;3.75;;
70467;SDS011;57934;51.532;7.684;2024-02-15T07:28:20;8.32;;;4.03;;
70467;SDS011;57934;51.532;7.684;2024-02-15T07:30:51;7.45;;;3.88;;
70467;SDS011;57934;51.532;7.684;2024-02-15T07:33:18;11.32;;;4.43;;
70467;SDS011;57934;51.532;7.684;2024-02-15T07:35:46;18.45;;;4.40;;
70467;SDS011;57934;51.532;7.684;2024-02-15T07:38:12;11.82;;;3.83;;
70467;SDS011;57934;51.532;7.684;2024-02-15T07:40:38;8.90;;;4.13;;
70467;SDS011;57934;51.532;7.684;2024-02-15T07:43:05;14.93;;;4.40;;
70467;SDS011;57934;51.532;7.684;2024-02-15T07:45:31;11.00;;;4.57;;
70467;SDS011;57934;51.532;7.684;2024-02-15T07:48:01;8.25;;;4.57;;
70467;SDS011;57934;51.532;7.684;2024-02-15T07:50:27;11.95;;;4.20;;
70467;SDS011;57934;51.532;7.684;2024-02-15T07:52:54;17.17;;;4.20;;
70467;SDS011;57934;51.532;7.684;2024-02-15T07:55:20;9.27;;;4.68;;
70467;SDS011;57934;51.532;7.684;2024-02-15T07:57:46;11.02;;;5.18;;
70467;SDS011;57934;51.532;7.684;2024-02-15T08:00:14;10.23;;;4.32;;
70467;SDS011;57934;51.532;7.684;2024-02-15T08:02:45;14.95;;;4.00;;
70467;SDS011;57934;51.532;7.684;2024-02-15T08:05:11;12.45;;;3.92;;
70467;SDS011;57934;51.532;7.684;2024-02-15T08:07:41;11.85;;;4.38;;
70467;SDS011;57934;51.532;7.684;2024-02-15T08:10:09;10.23;;;4.38;;
70467;SDS011;57934;51.532;7.684;2024-02-15T08:12:40;11.95;;;4.40;;
70467;SDS011;57934;51.532;7.684;2024-02-15T08:15:07;7.85;;;3.95;;
70467;SDS011;57934;51.532;7.684;2024-02-15T08:17:41;13.20;;;4.22;;
70467;SDS011;57934;51.532;7.684;2024-02-15T08:20:09;10.38;;;4.57;;
70467;SDS011;57934;51.532;7.684;2024-02-15T08:22:36;13.20;;;4.47;;
70467;SDS011;57934;51.532;7.684;2024-02-15T08:25:14;15.55;;;4.60;;
70467;SDS011;57934;51.532;7.684;2024-02-15T08:27:46;10.80;;;3.92;;
70467;SDS011;57934;51.532;7.684;2024-02-15T08:30:15;9.85;;;4.15;;
70467;SDS011;57934;51.532;7.684;2024-02-15T08:32:42;15.40;;;4.97;;
70467;SDS011;57934;51.532;7.684;2024-02-15T08:35:09;13.90;;;4.20;;
70467;SDS011;57934;51.532;7.684;2024-02-15T08:37:36;13.80;;;4.30;;
70467;SDS011;57934;51.532;7.684;2024-02-15T08:40:04;9.77;;;4.18;;
70467;SDS011;57934;51.532;7.684;2024-02-15T08:42:30;9.50;;;4.53;;
70467;SDS011;57934;51.532;7.684;2024-02-15T08:44:57;10.02;;;3.97;;
70467;SDS011;57934;51.532;7.684;2024-02-15T08:47:24;7.95;;;3.67;;
70467;SDS011;57934;51.532;7.684;2024-02-15T08:49:50;8.23;;;3.60;;
70467;SDS011;57934;51.532;7.684;2024-02-15T08:52:17;8.38;;;3.95;;
70467;SDS011;57934;51.532;7.684;2024-02-15T08:54:44;11.25;;;3.70;;
70467;SDS011;57934;51.532;7.684;2024-02-15T08:57:10;12.25;;;3.97;;
70467;SDS011;57934;51.532;7.684;2024-02-15T08:59:38;11.05;;;3.70;;
70467;SDS011;57934;51.532;7.684;2024-02-15T09:02:04;9.98;;;3.70;;
70467;SDS011;57934;51.532;7.684;2024-02-15T09:04:31;12.70;;;3.80;;
70467;SDS011;57934;51.532;7.684;2024-02-15T09:06:57;9.75;;;3.20;;
70467;SDS011;57934;51.532;7.684;2024-02-15T09:09:23;10.15;;;2.85;;
70467;SDS011;57934;51.532;7.684;2024-02-15T09:11:49;8.90;;;3.00;;
70467;SDS011;57934;51.532;7.684;2024-02-15T09:14:15;8.55;;;3.30;;
70467;SDS011;57934;51.532;7.684;2024-02-15T09:16:40;7.88;;;3.05;;
70467;SDS011;57934;51.532;7.684;2024-02-15T09:19:06;7.50;;;2.17;;
70467;SDS011;57934;51.532;7.684;2024-02-15T09:21:32;7.63;;;2.55;;
70467;SDS011;57934;51.532;7.684;2024-02-15T09:23:59;5.20;;;2.45;;
70467;SDS011;57934;51.532;7.684;2024-02-15T09:26:25;8.18;;;3.25;;
70467;SDS011;57934;51.532;7.684;2024-02-15T09:28:53;7.47;;;2.20;;
70467;SDS011;57934;51.532;7.684;2024-02-15T09:31:19;9.10;;;3.17;;
70467;SDS011;57934;51.532;7.684;2024-02-15T09:33:45;4.47;;;1.85;;
70467;SDS011;57934;51.532;7.684;2024-02-15T09:36:11;4.57;;;2.00;;
70467;SDS011;57934;51.532;7.684;2024-02-15T09:38:38;9.00;;;2.40;;
70467;SDS011;57934;51.532;7.684;2024-02-15T09:41:03;8.32;;;2.15;;
70467;SDS011;57934;51.532;7.684;2024-02-15T09:43:34;6.50;;;2.33;;
70467;SDS011;57934;51.532;7.684;2024-02-15T09:46:00;6.75;;;2.33;;
70467;SDS011;57934;51.532;7.684;2024-02-15T09:48:30;7.03;;;2.10;;
70467;SDS011;57934;51.532;7.684;2024-02-15T09:50:57;6.03;;;2.47;;
70467;SDS011;57934;51.532;7.684;2024-02-15T09:53:25;6.40;;;2.13;;
70467;SDS011;57934;51.532;7.684;2024-02-15T09:55:53;4.40;;;1.95;;
70467;SDS011;57934;51.532;7.684;2024-02-15T09:58:20;4.60;;;2.60;;
70467;SDS011;57934;51.532;7.684;2024-02-15T10:00:49;4.95;;;2.50;;
70467;SDS011;57934;51.532;7.684;2024-02-15T10:03:16;9.10;;;2.72;;
70467;SDS011;57934;51.532;7.684;2024-02-15T10:05:47;5.20;;;2.03;;
70467;SDS011;57934;51.532;7.684;2024-02-15T10:08:15;7.32;;;2.13;;
70467;SDS011;57934;51.532;7.684;2024-02-15T10:10:41;6.72;;;2.20;;
70467;SDS011;57934;51.532;7.684;2024-02-15T10:13:08;7.03;;;2.40;;
70467;SDS011;57934;51.532;7.684;2024-02-15T10:15:39;3.38;;;1.95;;
70467;SDS011;57934;51.532;7.684;2024-02-15T10:18:07;7.97;;;2.10;;
70467;SDS011;57934;51.532;7.684;2024-02-15T10:20:36;5.72;;;2.10;;
70467;SDS011;57934;51.532;7.684;2024-02-15T10:23:08;9.45;;;2.50;;
70467;SDS011;57934;51.532;7.684;2024-02-15T10:25:39;8.45;;;2.00;;
70467;SDS011;57934;51.532;7.684;2024-02-15T10:28:07;6.00;;;2.38;;
70467;SDS011;57934;51.532;7.684;2024-02-15T10:30:41;6.15;;;2.45;;
70467;SDS011;57934;51.532;7.684;2024-02-15T10:33:09;7.88;;;2.28;;
70467;SDS011;57934;51.532;7.684;2024-02-15T10:35:35;5.60;;;2.10;;
70467;SDS011;57934;51.532;7.684;2024-02-15T10:38:11;6.55;;;1.77;;
70467;SDS011;57934;51.532;7.684;2024-02-15T10:40:39;7.00;;;1.63;;
70467;SDS011;57934;51.532;7.684;2024-02-15T10:43:09;3.63;;;1.40;;
70467;SDS011;57934;51.532;7.684;2024-02-15T10:45:38;5.13;;;1.40;;
70467;SDS011;57934;51.532;7.684;2024-02-15T10:48:15;4.38;;;2.08;;
70467;SDS011;57934;51.532;7.684;2024-02-15T10:53:21;4.95;;;1.63;;
70467;SDS011;57934;51.532;7.684;2024-02-15T10:58:45;4.07;;;1.45;;
70467;SDS011;57934;51.532;7.684;2024-02-15T11:01:13;2.13;;;1.10;;
70467;SDS011;57934;51.532;7.684;2024-02-15T11:03:56;2.20;;;0.95;;
70467;SDS011;57934;51.532;7.684;2024-02-15T11:06:28;2.55;;;1.20;;
70467;SDS011;57934;51.532;7.684;2024-02-15T11:08:56;4.10;;;1.50;;
70467;SDS011;57934;51.532;7.684;2024-02-15T11:11:23;4.25;;;1.45;;
70467;SDS011;57934;51.532;7.684;2024-02-15T11:13:49;5.97;;;1.75;;
70467;SDS011;57934;51.532;7.684;2024-02-15T11:19:09;3.67;;;1.40;;
70467;SDS011;57934;51.532;7.684;2024-02-15T11:21:54;7.80;;;1.45;;
70467;SDS011;57934;51.532;7.684;2024-02-15T11:24:32;5.00;;;1.25;;
70467;SDS011;57934;51.532;7.684;2024-02-15T11:26:58;5.13;;;1.20;;
70467;SDS011;57934;51.532;7.684;2024-02-15T11:32:42;5.18;;;1.25;;
70467;SDS011;57934;51.532;7.684;2024-02-15T11:35:10;7.40;;;1.15;;
70467;SDS011;57934;51.532;7.684;2024-02-15T11:37:50;3.50;;;1.30;;
70467;SDS011;57934;51.532;7.684;2024-02-15T11:43:07;3.22;;;1.20;;
70467;SDS011;57934;51.532;7.684;2024-02-15T11:45:34;6.50;;;1.52;;
70467;SDS011;57934;51.532;7.684;2024-02-15T11:48:10;5.35;;;1.27;;
70467;SDS011;57934;51.532;7.684;2024-02-15T11:50:37;3.85;;;1.23;;
70467;SDS011;57934;51.532;7.684;2024-02-15T11:53:05;4.63;;;1.63;;
70467;SDS011;57934;51.532;7.684;2024-02-15T11:55:35;5.95;;;1.55;;
70467;SDS011;57934;51.532;7.684;2024-02-15T11:58:03;2.95;;;1.10;;
70467;SDS011;57934;51.532;7.684;2024-02-15T12:00:42;7.30;;;1.40;;
70467;SDS011;57934;51.532;7.684;2024-02-15T12:03:27;6.28;;;1.38;;
70467;SDS011;57934;51.532;7.684;2024-02-15T12:06:12;5.10;;;2.03;;
70467;SDS011;57934;51.532;7.684;2024-02-15T12:09:01;4.15;;;1.17;;
70467;SDS011;57934;51.532;7.684;2024-02-15T12:11:47;5.55;;;1.67;;
70467;SDS011;57934;51.532;7.684;2024-02-15T12:14:31;4.38;;;1.55;;
70467;SDS011;57934;51.532;7.684;2024-02-15T12:17:15;2.40;;;1.17;;
70467;SDS011;57934;51.532;7.684;2024-02-15T12:20:00;4.22;;;1.20;;
70467;SDS011;57934;51.532;7.684;2024-02-15T12:22:34;2.03;;;1.17;;
70467;SDS011;57934;51.532;7.684;2024-02-15T12:25:06;5.07;;;1.10;;
70467;SDS011;57934;51.532;7.684;2024-02-15T12:27:39;3.08;;;1.20;;
70467;SDS011;57934;51.532;7.684;2024-02-15T12:30:06;3.20;;;1.00;;
70467;SDS011;57934;51.532;7.684;2024-02-15T12:32:34;3.00;;;1.13;;
70467;SDS011;57934;51.532;7.684;2024-02-15T12:35:10;6.63;;;1.08;;
70467;SDS011;57934;51.532;7.684;2024-02-15T12:38:00;1.42;;;1.00;;
70467;SDS011;57934;51.532;7.684;2024-02-15T12:40:31;4.97;;;1.10;;
70467;SDS011;57934;51.532;7.684;2024-02-15T12:42:59;5.35;;;1.20;;
70467;SDS011;57934;51.532;7.684;2024-02-15T12:45:31;5.63;;;2.35;;
70467;SDS011;57934;51.532;7.684;2024-02-15T12:47:58;5.88;;;1.17;;
70467;SDS011;57934;51.532;7.684;2024-02-15T12:50:27;4.10;;;1.20;;
70467;SDS011;57934;51.532;7.684;2024-02-15T12:52:54;3.08;;;1.73;;
70467;SDS011;57934;51.532;7.684;2024-02-15T12:55:30;4.25;;;1.13;;
70467;SDS011;57934;51.532;7.684;2024-02-15T12:58:00;6.28;;;1.40;;
70467;SDS011;57934;51.532;7.684;2024-02-15T13:00:30;5.88;;;1.42;;
70467;SDS011;57934;51.532;7.684;2024-02-15T13:02:59;5.45;;;1.40;;
70467;SDS011;57934;51.532;7.684;2024-02-15T13:05:29;5.18;;;1.30;;
70467;SDS011;57934;51.532;7.684;2024-02-15T13:07:56;3.05;;;1.33;;
70467;SDS011;57934;51.532;7.684;2024-02-15T13:10:23;6.88;;;1.20;;
70467;SDS011;57934;51.532;7.684;2024-02-15T13:12:51;2.67;;;1.20;;
70467;SDS011;57934;51.532;7.684;2024-02-15T13:15:18;5.03;;;1.58;;
70467;SDS011;57934;51.532;7.684;2024-02-15T13:17:47;2.67;;;1.20;;
70467;SDS011;57934;51.532;7.684;2024-02-15T13:20:20;2.53;;;1.00;;
70467;SDS011;57934;51.532;7.684;2024-02-15T13:22:53;4.18;;;1.30;;
70467;SDS011;57934;51.532;7.684;2024-02-15T13:25:22;3.17;;;1.15;;
70467;SDS011;57934;51.532;7.684;2024-02-15T13:27:48;1.90;;;1.10;;
70467;SDS011;57934;51.532;7.684;2024-02-15T13:30:14;4.38;;;1.38;;
70467;SDS011;57934;51.532;7.684;2024-02-15T13:32:40;3.42;;;1.02;;
70467;SDS011;57934;51.532;7.684;2024-02-15T13:35:07;4.13;;;1.40;;
70467;SDS011;57934;51.532;7.684;2024-02-15T13:37:40;3.75;;;1.30;;
70467;SDS011;57934;51.532;7.684;2024-02-15T13:40:12;1.60;;;0.90;;
70467;SDS011;57934;51.532;7.684;2024-02-15T13:42:43;7.35;;;1.00;;
70467;SDS011;57934;51.532;7.684;2024-02-15T13:45:19;3.22;;;0.98;;
70467;SDS011;57934;51.532;7.684;2024-02-15T13:47:48;2.40;;;1.20;;
70467;SDS011;57934;51.532;7.684;2024-02-15T13:50:19;5.90;;;1.20;;
70467;SDS011;57934;51.532;7.684;2024-02-15T13:52:45;2.88;;;0.90;;
70467;SDS011;57934;51.532;7.684;2024-02-15T13:55:12;3.45;;;1.10;;
70467;SDS011;57934;51.532;7.684;2024-02-15T13:57:40;1.33;;;0.90;;
70467;SDS011;57934;51.532;7.684;2024-02-15T14:00:10;4.13;;;1.02;;
70467;SDS011;57934;51.532;7.684;2024-02-15T14:02:47;3.72;;;1.13;;
70467;SDS011;57934;51.532;7.684;2024-02-15T14:05:17;3.92;;;1.20;;
70467;SDS011;57934;51.532;7.684;2024-02-15T14:07:48;1.75;;;1.15;;
70467;SDS011;57934;51.532;7.684;2024-02-15T14:10:16;3.28;;;1.08;;
70467;SDS011;57934;51.532;7.684;2024-02-15T14:12:45;3.25;;;1.35;;
70467;SDS011;57934;51.532;7.684;2024-02-15T14:15:11;2.45;;;1.00;;
70467;SDS011;57934;51.532;7.684;2024-02-15T14:17:37;3.20;;;1.35;;
70467;SDS011;57934;51.532;7.684;2024-02-15T14:20:04;4.28;;;1.85;;
70467;SDS011;57934;51.532;7.684;2024-02-15T14:22:34;4.22;;;1.13;;
70467;SDS011;57934;51.532;7.684;2024-02-15T14:25:01;3.85;;;1.00;;
70467;SDS011;57934;51.532;7.684;2024-02-15T14:27:27;2.33;;;1.13;;
70467;SDS011;57934;51.532;7.684;2024-02-15T14:29:53;2.08;;;1.10;;
70467;SDS011;57934;51.532;7.684;2024-02-15T14:32:37;2.83;;;0.98;;
70467;SDS011;57934;51.532;7.684;2024-02-15T14:35:21;4.97;;;1.38;;
70467;SDS011;57934;51.532;7.684;2024-02-15T14:37:47;6.78;;;1.40;;
70467;SDS011;57934;51.532;7.684;2024-02-15T14:40:13;4.78;;;0.95;;
70467;SDS011;57934;51.532;7.684;2024-02-15T14:42:40;5.05;;;1.30;;
70467;SDS011;57934;51.532;7.684;2024-02-15T14:45:08;7.68;;;1.40;;
70467;SDS011;57934;51.532;7.684;2024-02-15T14:47:35;2.17;;;1.30;;
70467;SDS011;57934;51.532;7.684;2024-02-15T14:50:02;3.20;;;1.17;;
70467;SDS011;57934;51.532;7.684;2024-02-15T14:52:29;3.58;;;1.00;;
70467;SDS011;57934;51.532;7.684;2024-02-15T14:54:56;3.67;;;1.00;;
70467;SDS011;57934;51.532;7.684;2024-02-15T14:57:22;4.18;;;1.20;;
70467;SDS011;57934;51.532;7.684;2024-02-15T14:59:49;2.33;;;1.10;;
70467;SDS011;57934;51.532;7.684;2024-02-15T15:02:15;4.85;;;1.20;;